sensor_id;sensor_type;location;lat;lon;timestamp;P1;durP1;ratioP1;P2;durP2;ratioP2
1358;SDS011;673;48.098;14.422;2024-01-15T00:01:46;25.48;;;12.35;;
1358;SDS011;673;48.098;14.422;2024-01-15T00:04:13;16.25;;;8.45;;
1358;SDS011;673;48.098;14.422;2024-01-15T00:06:40;19.38;;;11.48;;
1358;SDS011;673;48.098;14.422;2024-01-15T00:09:07;17.75;;;11.48;;
1358;SDS011;673;48.098;14.422;2024-01-15T00:11:35;23.58;;;12.10;;
1358;SDS011;673;48.098;14.422;2024-01-15T00:14:02;18.75;;;11.48;;
1358;SDS011;673;48.098;14.422;2024-01-15T00:16:29;26.65;;;12.35;;
1358;SDS011;673;48.098;14.422;2024-01-15T00:18:57;28.42;;;13.80;;
1358;SDS011;673;48.098;14.422;2024-01-15T00:21:24;24.35;;;12.50;;
1358;SDS011;673;48.098;14.422;2024-01-15T00:23:52;32.17;;;14.30;;
1358;SDS011;673;48.098;14.422;2024-01-15T00:26:19;24.70;;;11.10;;
1358;SDS011;673;48.098;14.422;2024-01-15T00:28:46;19.48;;;10.52;;
1358;SDS011;673;48.098;14.422;2024-01-15T00:31:15;23.02;;;11.80;;
1358;SDS011;673;48.098;14.422;2024-01-15T00:33:42;26.35;;;10.88;;
1358;SDS011;673;48.098;14.422;2024-01-15T00:36:11;20.85;;;12.98;;
1358;SDS011;673;48.098;14.422;2024-01-15T00:38:39;17.00;;;8.65;;
1358;SDS011;673;48.098;14.422;2024-01-15T00:41:06;25.83;;;11.88;;
1358;SDS011;673;48.098;14.422;2024-01-15T00:43:33;18.35;;;10.20;;
1358;SDS011;673;48.098;14.422;2024-01-15T00:46:01;23.40;;;10.50;;
1358;SDS011;673;48.098;14.422;2024-01-15T00:48:28;18.85;;;10.13;;
1358;SDS011;673;48.098;14.422;2024-01-15T00:50:55;21.08;;;9.85;;
1358;SDS011;673;48.098;14.422;2024-01-15T00:53:23;15.90;;;9.05;;
1358;SDS011;673;48.098;14.422;2024-01-15T00:55:51;23.45;;;11.95;;
1358;SDS011;673;48.098;14.422;2024-01-15T00:58:18;20.00;;;9.75;;
1358;SDS011;673;48.098;14.422;2024-01-15T01:00:45;19.63;;;10.48;;
1358;SDS011;673;48.098;14.422;2024-01-15T01:03:12;16.20;;;9.85;;
1358;SDS011;673;48.098;14.422;2024-01-15T01:05:39;21.17;;;9.68;;
1358;SDS011;673;48.098;14.422;2024-01-15T01:08:06;21.13;;;9.48;;
1358;SDS011;673;48.098;14.422;2024-01-15T01:10:34;16.35;;;9.50;;
1358;SDS011;673;48.098;14.422;2024-01-15T01:13:02;25.10;;;11.35;;
1358;SDS011;673;48.098;14.422;2024-01-15T01:15:29;20.40;;;10.65;;
1358;SDS011;673;48.098;14.422;2024-01-15T01:17:56;16.73;;;9.85;;
1358;SDS011;673;48.098;14.422;2024-01-15T01:20:23;21.15;;;11.57;;
1358;SDS011;673;48.098;14.422;2024-01-15T01:22:50;21.30;;;11.13;;
1358;SDS011;673;48.098;14.422;2024-01-15T01:25:17;16.33;;;9.27;;
1358;SDS011;673;48.098;14.422;2024-01-15T01:27:45;25.48;;;9.98;;
1358;SDS011;673;48.098;14.422;2024-01-15T01:30:12;19.92;;;9.93;;
1358;SDS011;673;48.098;14.422;2024-01-15T01:32:39;21.92;;;11.65;;
1358;SDS011;673;48.098;14.422;2024-01-15T01:35:06;20.65;;;11.48;;
1358;SDS011;673;48.098;14.422;2024-01-15T01:37:33;13.80;;;11.30;;
1358;SDS011;673;48.098;14.422;2024-01-15T01:40:00;17.63;;;11.70;;
1358;SDS011;673;48.098;14.422;2024-01-15T01:42:27;16.98;;;10.18;;
1358;SDS011;673;48.098;14.422;2024-01-15T01:44:56;24.55;;;11.38;;
1358;SDS011;673;48.098;14.422;2024-01-15T01:47:22;20.55;;;10.30;;
1358;SDS011;673;48.098;14.422;2024-01-15T01:49:51;18.98;;;9.77;;
1358;SDS011;673;48.098;14.422;2024-01-15T01:52:18;21.73;;;11.65;;
1358;SDS011;673;48.098;14.422;2024-01-15T01:54:45;23.63;;;13.13;;
1358;SDS011;673;48.098;14.422;2024-01-15T01:57:12;23.20;;;13.20;;
1358;SDS011;673;48.098;14.422;2024-01-15T01:59:40;16.30;;;9.77;;
1358;SDS011;673;48.098;14.422;2024-01-15T02:02:08;24.27;;;11.13;;
1358;SDS011;673;48.098;14.422;2024-01-15T02:04:35;21.65;;;11.80;;
1358;SDS011;673;48.098;14.422;2024-01-15T02:07:03;20.75;;;10.15;;
1358;SDS011;673;48.098;14.422;2024-01-15T02:09:30;28.38;;;13.25;;
1358;SDS011;673;48.098;14.422;2024-01-15T02:11:58;18.40;;;10.32;;
1358;SDS011;673;48.098;14.422;2024-01-15T02:14:25;20.83;;;11.60;;
1358;SDS011;673;48.098;14.422;2024-01-15T02:16:52;21.58;;;11.48;;
1358;SDS011;673;48.098;14.422;2024-01-15T02:19:20;22.95;;;13.25;;
1358;SDS011;673;48.098;14.422;2024-01-15T02:21:47;26.58;;;10.75;;
1358;SDS011;673;48.098;14.422;2024-01-15T02:24:16;29.27;;;15.00;;
1358;SDS011;673;48.098;14.422;2024-01-15T02:26:43;30.17;;;13.85;;
1358;SDS011;673;48.098;14.422;2024-01-15T02:29:10;27.27;;;14.20;;
1358;SDS011;673;48.098;14.422;2024-01-15T02:31:37;26.60;;;11.02;;
1358;SDS011;673;48.098;14.422;2024-01-15T02:34:04;29.20;;;12.70;;
1358;SDS011;673;48.098;14.422;2024-01-15T02:36:31;24.33;;;12.00;;
1358;SDS011;673;48.098;14.422;2024-01-15T02:38:58;20.70;;;11.00;;
1358;SDS011;673;48.098;14.422;2024-01-15T02:41:26;27.83;;;13.00;;
1358;SDS011;673;48.098;14.422;2024-01-15T02:43:53;31.40;;;15.65;;
1358;SDS011;673;48.098;14.422;2024-01-15T02:46:20;22.23;;;11.75;;
1358;SDS011;673;48.098;14.422;2024-01-15T02:48:47;14.35;;;11.20;;
1358;SDS011;673;48.098;14.422;2024-01-15T02:51:14;18.23;;;11.15;;
1358;SDS011;673;48.098;14.422;2024-01-15T02:53:41;26.52;;;13.07;;
1358;SDS011;673;48.098;14.422;2024-01-15T02:56:08;20.30;;;10.45;;
1358;SDS011;673;48.098;14.422;2024-01-15T02:58:37;18.77;;;10.70;;
1358;SDS011;673;48.098;14.422;2024-01-15T03:01:04;14.30;;;8.48;;
1358;SDS011;673;48.098;14.422;2024-01-15T03:03:31;14.95;;;9.63;;
1358;SDS011;673;48.098;14.422;2024-01-15T03:05:58;13.32;;;7.78;;
1358;SDS011;673;48.098;14.422;2024-01-15T03:08:25;12.10;;;8.27;;
1358;SDS011;673;48.098;14.422;2024-01-15T03:10:54;9.70;;;6.70;;
1358;SDS011;673;48.098;14.422;2024-01-15T03:13:21;10.93;;;6.10;;
1358;SDS011;673;48.098;14.422;2024-01-15T03:15:49;13.45;;;7.93;;
1358;SDS011;673;48.098;14.422;2024-01-15T03:18:16;10.63;;;6.53;;
1358;SDS011;673;48.098;14.422;2024-01-15T03:20:43;12.50;;;6.93;;
1358;SDS011;673;48.098;14.422;2024-01-15T03:23:10;9.00;;;7.05;;
1358;SDS011;673;48.098;14.422;2024-01-15T03:25:37;11.05;;;5.97;;
1358;SDS011;673;48.098;14.422;2024-01-15T03:28:04;11.75;;;6.68;;
1358;SDS011;673;48.098;14.422;2024-01-15T03:30:31;11.40;;;6.50;;
1358;SDS011;673;48.098;14.422;2024-01-15T03:32:59;16.33;;;6.53;;
1358;SDS011;673;48.098;14.422;2024-01-15T03:35:26;11.50;;;6.50;;
1358;SDS011;673;48.098;14.422;2024-01-15T03:37:55;10.93;;;6.38;;
1358;SDS011;673;48.098;14.422;2024-01-15T03:40:22;9.98;;;6.32;;
1358;SDS011;673;48.098;14.422;2024-01-15T03:42:49;10.77;;;7.38;;
1358;SDS011;673;48.098;14.422;2024-01-15T03:45:17;11.07;;;7.35;;
1358;SDS011;673;48.098;14.422;2024-01-15T03:47:44;13.27;;;6.82;;
1358;SDS011;673;48.098;14.422;2024-01-15T03:50:12;13.77;;;7.35;;
1358;SDS011;673;48.098;14.422;2024-01-15T03:52:39;10.80;;;7.47;;
1358;SDS011;673;48.098;14.422;2024-01-15T03:55:06;10.30;;;5.43;;
1358;SDS011;673;48.098;14.422;2024-01-15T03:57:33;10.52;;;6.50;;
1358;SDS011;673;48.098;14.422;2024-01-15T04:00:00;11.75;;;6.85;;
1358;SDS011;673;48.098;14.422;2024-01-15T04:02:28;8.95;;;6.38;;
1358;SDS011;673;48.098;14.422;2024-01-15T04:04:55;8.65;;;5.00;;
1358;SDS011;673;48.098;14.422;2024-01-15T04:07:23;9.50;;;6.20;;
1358;SDS011;673;48.098;14.422;2024-01-15T04:09:50;7.38;;;5.80;;
1358;SDS011;673;48.098;14.422;2024-01-15T04:12:17;9.25;;;5.75;;
1358;SDS011;673;48.098;14.422;2024-01-15T04:14:44;8.48;;;5.30;;
1358;SDS011;673;48.098;14.422;2024-01-15T04:17:11;12.63;;;5.38;;
1358;SDS011;673;48.098;14.422;2024-01-15T04:19:38;8.30;;;6.28;;
1358;SDS011;673;48.098;14.422;2024-01-15T04:22:09;7.45;;;5.28;;
1358;SDS011;673;48.098;14.422;2024-01-15T04:24:37;9.63;;;4.97;;
1358;SDS011;673;48.098;14.422;2024-01-15T04:27:04;9.77;;;5.72;;
1358;SDS011;673;48.098;14.422;2024-01-15T04:29:31;6.93;;;4.80;;
1358;SDS011;673;48.098;14.422;2024-01-15T04:31:58;8.05;;;5.75;;
1358;SDS011;673;48.098;14.422;2024-01-15T04:34:25;8.10;;;4.95;;
1358;SDS011;673;48.098;14.422;2024-01-15T04:36:52;10.07;;;5.10;;
1358;SDS011;673;48.098;14.422;2024-01-15T04:39:19;8.07;;;5.72;;
1358;SDS011;673;48.098;14.422;2024-01-15T04:41:48;11.15;;;5.43;;
1358;SDS011;673;48.098;14.422;2024-01-15T04:44:15;8.60;;;5.63;;
1358;SDS011;673;48.098;14.422;2024-01-15T04:46:42;7.65;;;4.82;;
1358;SDS011;673;48.098;14.422;2024-01-15T04:49:10;9.07;;;6.07;;
1358;SDS011;673;48.098;14.422;2024-01-15T04:51:37;8.02;;;5.32;;
1358;SDS011;673;48.098;14.422;2024-01-15T04:54:04;12.35;;;5.95;;
1358;SDS011;673;48.098;14.422;2024-01-15T04:56:31;5.97;;;5.30;;
1358;SDS011;673;48.098;14.422;2024-01-15T04:58:59;9.68;;;5.35;;
1358;SDS011;673;48.098;14.422;2024-01-15T05:01:30;11.93;;;6.32;;
1358;SDS011;673;48.098;14.422;2024-01-15T05:03:57;10.90;;;6.03;;
1358;SDS011;673;48.098;14.422;2024-01-15T05:06:24;7.57;;;4.72;;
1358;SDS011;673;48.098;14.422;2024-01-15T05:08:51;10.80;;;5.40;;
1358;SDS011;673;48.098;14.422;2024-01-15T05:11:18;9.40;;;6.63;;
1358;SDS011;673;48.098;14.422;2024-01-15T05:13:46;7.10;;;4.60;;
1358;SDS011;673;48.098;14.422;2024-01-15T05:16:14;7.65;;;4.53;;
1358;SDS011;673;48.098;14.422;2024-01-15T05:18:41;8.75;;;5.47;;
1358;SDS011;673;48.098;14.422;2024-01-15T05:21:09;6.07;;;4.50;;
1358;SDS011;673;48.098;14.422;2024-01-15T05:23:36;9.18;;;4.20;;
1358;SDS011;673;48.098;14.422;2024-01-15T05:26:03;6.50;;;4.40;;
1358;SDS011;673;48.098;14.422;2024-01-15T05:28:30;9.18;;;5.95;;
1358;SDS011;673;48.098;14.422;2024-01-15T05:30:57;6.60;;;4.97;;
1358;SDS011;673;48.098;14.422;2024-01-15T05:33:25;7.15;;;4.35;;
1358;SDS011;673;48.098;14.422;2024-01-15T05:35:52;5.60;;;3.28;;
1358;SDS011;673;48.098;14.422;2024-01-15T05:38:19;7.22;;;4.68;;
1358;SDS011;673;48.098;14.422;2024-01-15T05:40:46;5.72;;;3.45;;
1358;SDS011;673;48.098;14.422;2024-01-15T05:43:13;6.97;;;4.60;;
1358;SDS011;673;48.098;14.422;2024-01-15T05:45:42;9.60;;;6.43;;
1358;SDS011;673;48.098;14.422;2024-01-15T05:48:09;7.70;;;5.10;;
1358;SDS011;673;48.098;14.422;2024-01-15T05:50:38;8.60;;;6.47;;
1358;SDS011;673;48.098;14.422;2024-01-15T05:53:05;5.68;;;3.45;;
1358;SDS011;673;48.098;14.422;2024-01-15T05:55:32;9.88;;;4.47;;
1358;SDS011;673;48.098;14.422;2024-01-15T05:57:59;7.15;;;3.67;;
1358;SDS011;673;48.098;14.422;2024-01-15T06:00:26;11.27;;;5.28;;
1358;SDS011;673;48.098;14.422;2024-01-15T06:02:53;8.60;;;5.65;;
1358;SDS011;673;48.098;14.422;2024-01-15T06:05:20;9.77;;;5.35;;
1358;SDS011;673;48.098;14.422;2024-01-15T06:07:48;10.43;;;4.32;;
1358;SDS011;673;48.098;14.422;2024-01-15T06:10:15;6.30;;;3.72;;
1358;SDS011;673;48.098;14.422;2024-01-15T06:12:43;5.45;;;3.85;;
1358;SDS011;673;48.098;14.422;2024-01-15T06:15:10;9.60;;;4.68;;
1358;SDS011;673;48.098;14.422;2024-01-15T06:17:38;6.57;;;4.35;;
1358;SDS011;673;48.098;14.422;2024-01-15T06:20:05;7.10;;;4.28;;
1358;SDS011;673;48.098;14.422;2024-01-15T06:22:34;5.40;;;3.67;;
1358;SDS011;673;48.098;14.422;2024-01-15T06:25:03;6.18;;;4.07;;
1358;SDS011;673;48.098;14.422;2024-01-15T06:27:30;3.80;;;2.95;;
1358;SDS011;673;48.098;14.422;2024-01-15T06:29:57;8.35;;;3.92;;
1358;SDS011;673;48.098;14.422;2024-01-15T06:32:24;6.35;;;3.80;;
1358;SDS011;673;48.098;14.422;2024-01-15T06:34:51;4.97;;;3.85;;
1358;SDS011;673;48.098;14.422;2024-01-15T06:37:18;5.40;;;3.58;;
1358;SDS011;673;48.098;14.422;2024-01-15T06:39:45;4.80;;;3.55;;
1358;SDS011;673;48.098;14.422;2024-01-15T06:42:13;4.47;;;3.08;;
1358;SDS011;673;48.098;14.422;2024-01-15T06:44:40;7.82;;;4.03;;
1358;SDS011;673;48.098;14.422;2024-01-15T06:47:07;5.10;;;3.40;;
1358;SDS011;673;48.098;14.422;2024-01-15T06:49:34;3.60;;;3.20;;
1358;SDS011;673;48.098;14.422;2024-01-15T06:52:01;5.80;;;3.45;;
1358;SDS011;673;48.098;14.422;2024-01-15T06:54:28;6.80;;;3.90;;
1358;SDS011;673;48.098;14.422;2024-01-15T06:56:55;7.55;;;4.72;;
1358;SDS011;673;48.098;14.422;2024-01-15T06:59:23;5.85;;;4.82;;
1358;SDS011;673;48.098;14.422;2024-01-15T07:01:50;7.18;;;3.30;;
1358;SDS011;673;48.098;14.422;2024-01-15T07:04:17;7.60;;;4.30;;
1358;SDS011;673;48.098;14.422;2024-01-15T07:06:44;4.57;;;3.30;;
1358;SDS011;673;48.098;14.422;2024-01-15T07:09:13;10.53;;;5.00;;
1358;SDS011;673;48.098;14.422;2024-01-15T07:11:43;6.15;;;3.45;;
1358;SDS011;673;48.098;14.422;2024-01-15T07:14:14;7.53;;;4.78;;
1358;SDS011;673;48.098;14.422;2024-01-15T07:16:42;4.43;;;3.30;;
1358;SDS011;673;48.098;14.422;2024-01-15T07:19:09;4.50;;;2.85;;
1358;SDS011;673;48.098;14.422;2024-01-15T07:21:36;6.83;;;4.87;;
1358;SDS011;673;48.098;14.422;2024-01-15T07:24:05;5.28;;;4.55;;
1358;SDS011;673;48.098;14.422;2024-01-15T07:26:32;7.15;;;3.72;;
1358;SDS011;673;48.098;14.422;2024-01-15T07:28:59;6.82;;;3.80;;
1358;SDS011;673;48.098;14.422;2024-01-15T07:31:26;4.78;;;3.30;;
1358;SDS011;673;48.098;14.422;2024-01-15T07:33:54;4.57;;;2.88;;
1358;SDS011;673;48.098;14.422;2024-01-15T07:36:21;3.83;;;2.75;;
1358;SDS011;673;48.098;14.422;2024-01-15T07:38:48;2.97;;;2.67;;
1358;SDS011;673;48.098;14.422;2024-01-15T07:41:15;3.38;;;2.35;;
1358;SDS011;673;48.098;14.422;2024-01-15T07:43:42;4.28;;;2.90;;
1358;SDS011;673;48.098;14.422;2024-01-15T07:46:09;7.63;;;3.03;;
1358;SDS011;673;48.098;14.422;2024-01-15T07:48:36;2.75;;;2.40;;
1358;SDS011;673;48.098;14.422;2024-01-15T07:51:05;7.47;;;3.00;;
1358;SDS011;673;48.098;14.422;2024-01-15T07:53:32;6.80;;;3.80;;
1358;SDS011;673;48.098;14.422;2024-01-15T07:55:58;9.93;;;3.63;;
1358;SDS011;673;48.098;14.422;2024-01-15T07:58:25;7.63;;;3.70;;
1358;SDS011;673;48.098;14.422;2024-01-15T08:00:52;3.73;;;3.10;;
1358;SDS011;673;48.098;14.422;2024-01-15T08:03:20;5.05;;;3.53;;
1358;SDS011;673;48.098;14.422;2024-01-15T08:05:47;5.23;;;3.17;;
1358;SDS011;673;48.098;14.422;2024-01-15T08:08:18;4.50;;;2.75;;
1358;SDS011;673;48.098;14.422;2024-01-15T08:10:46;5.35;;;2.97;;
1358;SDS011;673;48.098;14.422;2024-01-15T08:13:13;8.27;;;4.35;;
1358;SDS011;673;48.098;14.422;2024-01-15T08:15:40;5.83;;;3.93;;
1358;SDS011;673;48.098;14.422;2024-01-15T08:18:07;5.57;;;4.38;;
1358;SDS011;673;48.098;14.422;2024-01-15T08:20:34;6.15;;;4.75;;
1358;SDS011;673;48.098;14.422;2024-01-15T08:23:01;8.27;;;3.67;;
1358;SDS011;673;48.098;14.422;2024-01-15T08:25:30;4.70;;;4.23;;
1358;SDS011;673;48.098;14.422;2024-01-15T08:27:57;4.30;;;3.47;;
1358;SDS011;673;48.098;14.422;2024-01-15T08:30:24;8.90;;;4.50;;
1358;SDS011;673;48.098;14.422;2024-01-15T08:32:52;5.50;;;3.83;;
1358;SDS011;673;48.098;14.422;2024-01-15T08:35:19;4.87;;;4.37;;
1358;SDS011;673;48.098;14.422;2024-01-15T08:37:48;6.60;;;5.10;;
1358;SDS011;673;48.098;14.422;2024-01-15T08:40:15;8.70;;;4.47;;
1358;SDS011;673;48.098;14.422;2024-01-15T08:42:43;3.43;;;3.13;;
1358;SDS011;673;48.098;14.422;2024-01-15T08:45:11;5.30;;;4.80;;
1358;SDS011;673;48.098;14.422;2024-01-15T08:47:38;9.40;;;6.60;;
1358;SDS011;673;48.098;14.422;2024-01-15T08:50:06;3.80;;;2.60;;
1358;SDS011;673;48.098;14.422;2024-01-15T08:52:35;5.63;;;3.87;;
1358;SDS011;673;48.098;14.422;2024-01-15T08:55:02;7.63;;;4.70;;
1358;SDS011;673;48.098;14.422;2024-01-15T08:57:32;2.93;;;2.73;;
1358;SDS011;673;48.098;14.422;2024-01-15T09:00:00;4.80;;;3.27;;
1358;SDS011;673;48.098;14.422;2024-01-15T09:02:27;12.77;;;8.10;;
1358;SDS011;673;48.098;14.422;2024-01-15T09:04:55;4.13;;;2.53;;
1358;SDS011;673;48.098;14.422;2024-01-15T09:07:22;3.17;;;2.77;;
1358;SDS011;673;48.098;14.422;2024-01-15T09:09:50;6.80;;;2.33;;
1358;SDS011;673;48.098;14.422;2024-01-15T09:12:17;6.37;;;3.93;;
1358;SDS011;673;48.098;14.422;2024-01-15T09:14:46;2.90;;;1.83;;
1358;SDS011;673;48.098;14.422;2024-01-15T09:17:14;4.97;;;3.13;;
1358;SDS011;673;48.098;14.422;2024-01-15T09:19:41;9.20;;;5.33;;
1358;SDS011;673;48.098;14.422;2024-01-15T09:22:08;8.03;;;4.87;;
1358;SDS011;673;48.098;14.422;2024-01-15T09:24:35;5.70;;;2.30;;
1358;SDS011;673;48.098;14.422;2024-01-15T09:27:02;2.53;;;1.90;;
1358;SDS011;673;48.098;14.422;2024-01-15T09:29:29;4.07;;;3.70;;
1358;SDS011;673;48.098;14.422;2024-01-15T09:31:57;2.55;;;1.45;;
1358;SDS011;673;48.098;14.422;2024-01-15T09:34:25;3.70;;;2.47;;
1358;SDS011;673;48.098;14.422;2024-01-15T09:36:52;2.33;;;1.60;;
1358;SDS011;673;48.098;14.422;2024-01-15T09:39:19;3.37;;;1.90;;
1358;SDS011;673;48.098;14.422;2024-01-15T09:41:47;2.20;;;1.93;;
1358;SDS011;673;48.098;14.422;2024-01-15T09:44:15;2.87;;;1.47;;
1358;SDS011;673;48.098;14.422;2024-01-15T09:46:43;3.37;;;2.50;;
1358;SDS011;673;48.098;14.422;2024-01-15T09:49:10;5.60;;;2.30;;
1358;SDS011;673;48.098;14.422;2024-01-15T09:51:38;2.95;;;2.00;;
1358;SDS011;673;48.098;14.422;2024-01-15T09:54:06;2.77;;;1.83;;
1358;SDS011;673;48.098;14.422;2024-01-15T09:56:33;1.50;;;1.40;;
1358;SDS011;673;48.098;14.422;2024-01-15T09:59:00;2.60;;;1.83;;
1358;SDS011;673;48.098;14.422;2024-01-15T10:01:29;2.93;;;2.57;;
1358;SDS011;673;48.098;14.422;2024-01-15T10:03:58;3.77;;;2.13;;
1358;SDS011;673;48.098;14.422;2024-01-15T10:06:26;2.63;;;2.10;;
1358;SDS011;673;48.098;14.422;2024-01-15T10:08:55;3.00;;;1.83;;
1358;SDS011;673;48.098;14.422;2024-01-15T10:11:24;2.50;;;1.88;;
1358;SDS011;673;48.098;14.422;2024-01-15T10:13:51;10.27;;;2.28;;
1358;SDS011;673;48.098;14.422;2024-01-15T10:16:19;5.43;;;3.07;;
1358;SDS011;673;48.098;14.422;2024-01-15T10:18:47;2.87;;;2.60;;
1358;SDS011;673;48.098;14.422;2024-01-15T10:21:14;2.53;;;2.00;;
1358;SDS011;673;48.098;14.422;2024-01-15T10:23:41;2.13;;;1.55;;
1358;SDS011;673;48.098;14.422;2024-01-15T10:26:09;1.48;;;1.38;;
1358;SDS011;673;48.098;14.422;2024-01-15T10:28:37;1.73;;;1.37;;
1358;SDS011;673;48.098;14.422;2024-01-15T10:31:04;3.40;;;1.63;;
1358;SDS011;673;48.098;14.422;2024-01-15T10:33:31;2.28;;;1.35;;
1358;SDS011;673;48.098;14.422;2024-01-15T10:35:59;3.20;;;1.80;;
1358;SDS011;673;48.098;14.422;2024-01-15T10:38:27;3.90;;;2.07;;
1358;SDS011;673;48.098;14.422;2024-01-15T10:40:54;4.37;;;2.23;;
1358;SDS011;673;48.098;14.422;2024-01-15T10:43:23;1.77;;;1.67;;
1358;SDS011;673;48.098;14.422;2024-01-15T10:45:50;2.80;;;1.43;;
1358;SDS011;673;48.098;14.422;2024-01-15T10:48:18;3.23;;;1.37;;
1358;SDS011;673;48.098;14.422;2024-01-15T10:50:46;2.10;;;1.83;;
1358;SDS011;673;48.098;14.422;2024-01-15T10:53:14;2.50;;;2.00;;
1358;SDS011;673;48.098;14.422;2024-01-15T10:55:42;1.70;;;0.93;;
1358;SDS011;673;48.098;14.422;2024-01-15T10:58:09;1.77;;;1.30;;
1358;SDS011;673;48.098;14.422;2024-01-15T11:00:38;1.13;;;0.90;;
1358;SDS011;673;48.098;14.422;2024-01-15T11:03:05;2.70;;;1.13;;
1358;SDS011;673;48.098;14.422;2024-01-15T11:05:33;3.40;;;1.60;;
1358;SDS011;673;48.098;14.422;2024-01-15T11:08:01;4.63;;;0.87;;
1358;SDS011;673;48.098;14.422;2024-01-15T11:10:44;2.73;;;1.20;;
1358;SDS011;673;48.098;14.422;2024-01-15T11:13:14;1.90;;;1.17;;
1358;SDS011;673;48.098;14.422;2024-01-15T11:15:55;3.63;;;1.67;;
1358;SDS011;673;48.098;14.422;2024-01-15T11:18:27;1.93;;;1.00;;
1358;SDS011;673;48.098;14.422;2024-01-15T11:23:48;2.67;;;1.47;;
1358;SDS011;673;48.098;14.422;2024-01-15T11:26:29;2.60;;;1.20;;
1358;SDS011;673;48.098;14.422;2024-01-15T11:28:57;3.50;;;0.83;;
1358;SDS011;673;48.098;14.422;2024-01-15T11:31:30;1.13;;;0.90;;
1358;SDS011;673;48.098;14.422;2024-01-15T11:34:49;2.20;;;0.90;;
1358;SDS011;673;48.098;14.422;2024-01-15T11:37:17;1.67;;;1.20;;
1358;SDS011;673;48.098;14.422;2024-01-15T11:39:45;1.10;;;0.70;;
1358;SDS011;673;48.098;14.422;2024-01-15T11:42:13;1.37;;;1.00;;
1358;SDS011;673;48.098;14.422;2024-01-15T11:44:41;2.10;;;1.23;;
1358;SDS011;673;48.098;14.422;2024-01-15T11:47:10;1.60;;;0.80;;
1358;SDS011;673;48.098;14.422;2024-01-15T11:49:54;1.73;;;0.90;;
1358;SDS011;673;48.098;14.422;2024-01-15T11:52:25;1.00;;;0.90;;
1358;SDS011;673;48.098;14.422;2024-01-15T11:54:55;1.20;;;0.87;;
1358;SDS011;673;48.098;14.422;2024-01-15T11:57:31;1.20;;;0.80;;
1358;SDS011;673;48.098;14.422;2024-01-15T12:00:04;1.17;;;1.00;;
1358;SDS011;673;48.098;14.422;2024-01-15T12:02:36;0.87;;;0.70;;
1358;SDS011;673;48.098;14.422;2024-01-15T12:05:03;2.07;;;1.17;;
1358;SDS011;673;48.098;14.422;2024-01-15T12:07:31;0.90;;;0.60;;
1358;SDS011;673;48.098;14.422;2024-01-15T12:09:58;1.23;;;0.70;;
1358;SDS011;673;48.098;14.422;2024-01-15T12:12:27;1.43;;;0.63;;
1358;SDS011;673;48.098;14.422;2024-01-15T12:15:03;0.70;;;0.70;;
1358;SDS011;673;48.098;14.422;2024-01-15T12:17:30;0.90;;;0.70;;
1358;SDS011;673;48.098;14.422;2024-01-15T12:19:59;1.40;;;0.80;;
1358;SDS011;673;48.098;14.422;2024-01-15T12:22:26;1.37;;;1.07;;
1358;SDS011;673;48.098;14.422;2024-01-15T12:24:54;1.53;;;0.70;;
1358;SDS011;673;48.098;14.422;2024-01-15T12:27:22;0.80;;;0.70;;
1358;SDS011;673;48.098;14.422;2024-01-15T12:29:50;1.90;;;0.60;;
1358;SDS011;673;48.098;14.422;2024-01-15T12:32:18;0.70;;;0.40;;
1358;SDS011;673;48.098;14.422;2024-01-15T12:34:46;1.70;;;0.60;;
1358;SDS011;673;48.098;14.422;2024-01-15T12:37:17;0.80;;;0.50;;
1358;SDS011;673;48.098;14.422;2024-01-15T12:39:45;2.20;;;0.70;;
1358;SDS011;673;48.098;14.422;2024-01-15T12:42:13;1.77;;;0.80;;
1358;SDS011;673;48.098;14.422;2024-01-15T12:44:42;1.50;;;0.93;;
1358;SDS011;673;48.098;14.422;2024-01-15T12:47:09;1.53;;;0.77;;
1358;SDS011;673;48.098;14.422;2024-01-15T12:49:36;1.90;;;0.80;;
1358;SDS011;673;48.098;14.422;2024-01-15T12:52:07;1.90;;;0.73;;
1358;SDS011;673;48.098;14.422;2024-01-15T12:54:36;0.60;;;0.50;;
1358;SDS011;673;48.098;14.422;2024-01-15T12:57:03;1.17;;;0.70;;
1358;SDS011;673;48.098;14.422;2024-01-15T12:59:30;1.20;;;0.67;;
1358;SDS011;673;48.098;14.422;2024-01-15T13:01:57;2.60;;;0.80;;
1358;SDS011;673;48.098;14.422;2024-01-15T13:04:24;1.40;;;0.73;;
1358;SDS011;673;48.098;14.422;2024-01-15T13:06:51;0.70;;;0.67;;
1358;SDS011;673;48.098;14.422;2024-01-15T13:09:18;1.50;;;0.80;;
1358;SDS011;673;48.098;14.422;2024-01-15T13:11:47;1.90;;;0.80;;
1358;SDS011;673;48.098;14.422;2024-01-15T13:14:13;1.40;;;0.63;;
1358;SDS011;673;48.098;14.422;2024-01-15T13:16:41;1.43;;;1.00;;
1358;SDS011;673;48.098;14.422;2024-01-15T13:19:08;1.27;;;0.73;;
1358;SDS011;673;48.098;14.422;2024-01-15T13:21:36;1.57;;;0.60;;
1358;SDS011;673;48.098;14.422;2024-01-15T13:24:03;0.90;;;0.80;;
1358;SDS011;673;48.098;14.422;2024-01-15T13:26:31;0.70;;;0.50;;
1358;SDS011;673;48.098;14.422;2024-01-15T13:28:59;0.60;;;0.60;;
1358;SDS011;673;48.098;14.422;2024-01-15T13:31:26;0.50;;;0.40;;
1358;SDS011;673;48.098;14.422;2024-01-15T13:33:54;0.60;;;0.50;;
1358;SDS011;673;48.098;14.422;2024-01-15T13:36:21;0.60;;;0.50;;
1358;SDS011;673;48.098;14.422;2024-01-15T13:38:48;0.50;;;0.47;;
1358;SDS011;673;48.098;14.422;2024-01-15T13:41:16;0.70;;;0.60;;
1358;SDS011;673;48.098;14.422;2024-01-15T13:43:44;0.87;;;0.60;;
1358;SDS011;673;48.098;14.422;2024-01-15T13:46:15;0.60;;;0.50;;
1358;SDS011;673;48.098;14.422;2024-01-15T13:48:42;1.70;;;0.50;;
1358;SDS011;673;48.098;14.422;2024-01-15T13:51:09;0.90;;;0.70;;
1358;SDS011;673;48.098;14.422;2024-01-15T13:53:37;0.70;;;0.55;;
1358;SDS011;673;48.098;14.422;2024-01-15T13:56:04;1.27;;;0.50;;
1358;SDS011;673;48.098;14.422;2024-01-15T13:58:32;0.67;;;0.47;;
1358;SDS011;673;48.098;14.422;2024-01-15T14:00:59;0.50;;;0.40;;
1358;SDS011;673;48.098;14.422;2024-01-15T14:03:29;0.73;;;0.50;;
1358;SDS011;673;48.098;14.422;2024-01-15T14:05:56;0.63;;;0.60;;
1358;SDS011;673;48.098;14.422;2024-01-15T14:08:23;1.80;;;0.30;;
1358;SDS011;673;48.098;14.422;2024-01-15T14:10:50;0.70;;;0.60;;
1358;SDS011;673;48.098;14.422;2024-01-15T14:13:18;2.10;;;0.47;;
1358;SDS011;673;48.098;14.422;2024-01-15T14:15:45;1.23;;;1.10;;
1358;SDS011;673;48.098;14.422;2024-01-15T14:18:13;0.93;;;0.90;;
1358;SDS011;673;48.098;14.422;2024-01-15T14:20:42;0.60;;;0.40;;
1358;SDS011;673;48.098;14.422;2024-01-15T14:23:09;1.17;;;1.07;;
1358;SDS011;673;48.098;14.422;2024-01-15T14:25:36;1.00;;;0.50;;
1358;SDS011;673;48.098;14.422;2024-01-15T14:28:04;3.33;;;0.70;;
1358;SDS011;673;48.098;14.422;2024-01-15T14:30:31;1.00;;;0.50;;
1358;SDS011;673;48.098;14.422;2024-01-15T14:32:58;1.40;;;0.90;;
1358;SDS011;673;48.098;14.422;2024-01-15T14:35:25;1.50;;;1.20;;
1358;SDS011;673;48.098;14.422;2024-01-15T14:37:54;0.50;;;0.40;;
1358;SDS011;673;48.098;14.422;2024-01-15T14:40:23;2.13;;;0.90;;
1358;SDS011;673;48.098;14.422;2024-01-15T14:42:51;0.80;;;0.50;;
1358;SDS011;673;48.098;14.422;2024-01-15T14:45:18;1.93;;;0.70;;
1358;SDS011;673;48.098;14.422;2024-01-15T14:47:45;0.80;;;0.40;;
1358;SDS011;673;48.098;14.422;2024-01-15T14:50:12;0.97;;;0.80;;
1358;SDS011;673;48.098;14.422;2024-01-15T14:52:39;3.77;;;0.77;;
1358;SDS011;673;48.098;14.422;2024-01-15T14:55:08;0.80;;;0.60;;
1358;SDS011;673;48.098;14.422;2024-01-15T14:57:35;1.13;;;0.70;;
1358;SDS011;673;48.098;14.422;2024-01-15T15:00:03;1.23;;;0.90;;
1358;SDS011;673;48.098;14.422;2024-01-15T15:02:32;0.80;;;0.50;;
1358;SDS011;673;48.098;14.422;2024-01-15T15:04:59;0.80;;;0.50;;
1358;SDS011;673;48.098;14.422;2024-01-15T15:07:26;1.00;;;0.70;;
1358;SDS011;673;48.098;14.422;2024-01-15T15:09:53;2.03;;;1.13;;
1358;SDS011;673;48.098;14.422;2024-01-15T15:12:22;2.00;;;0.53;;
1358;SDS011;673;48.098;14.422;2024-01-15T15:14:49;0.50;;;0.40;;
1358;SDS011;673;48.098;14.422;2024-01-15T15:17:16;1.53;;;0.60;;